sensor_id;sensor_type;location;lat;lon;timestamp;P1;durP1;ratioP1;P2;durP2;ratioP2
12585;SDS011;6358;50.760;0.282;2022-08-03T00:01:34;3.58;;;1.90;;
12585;SDS011;6358;50.760;0.282;2022-08-03T00:04:01;3.17;;;1.90;;
12585;SDS011;6358;50.760;0.282;2022-08-03T00:06:27;5.65;;;2.17;;
12585;SDS011;6358;50.760;0.282;2022-08-03T00:08:53;3.70;;;1.52;;
12585;SDS011;6358;50.760;0.282;2022-08-03T00:11:19;3.05;;;1.85;;
12585;SDS011;6358;50.760;0.282;2022-08-03T00:13:45;4.82;;;1.92;;
12585;SDS011;6358;50.760;0.282;2022-08-03T00:16:11;3.35;;;1.92;;
12585;SDS011;6358;50.760;0.282;2022-08-03T00:18:38;4.85;;;2.05;;
12585;SDS011;6358;50.760;0.282;2022-08-03T00:21:04;3.42;;;1.85;;
12585;SDS011;6358;50.760;0.282;2022-08-03T00:23:30;4.10;;;2.20;;
12585;SDS011;6358;50.760;0.282;2022-08-03T00:25:56;3.67;;;1.98;;
12585;SDS011;6358;50.760;0.282;2022-08-03T00:28:22;4.22;;;1.67;;
12585;SDS011;6358;50.760;0.282;2022-08-03T00:30:49;2.75;;;1.80;;
12585;SDS011;6358;50.760;0.282;2022-08-03T00:33:15;3.67;;;1.83;;
12585;SDS011;6358;50.760;0.282;2022-08-03T00:35:41;5.60;;;1.85;;
12585;SDS011;6358;50.760;0.282;2022-08-03T00:38:07;3.75;;;2.05;;
12585;SDS011;6358;50.760;0.282;2022-08-03T00:40:33;3.22;;;1.80;;
12585;SDS011;6358;50.760;0.282;2022-08-03T00:43:01;3.05;;;1.77;;
12585;SDS011;6358;50.760;0.282;2022-08-03T00:45:28;4.00;;;2.00;;
12585;SDS011;6358;50.760;0.282;2022-08-03T00:47:54;4.60;;;2.00;;
12585;SDS011;6358;50.760;0.282;2022-08-03T00:50:21;5.20;;;2.00;;
12585;SDS011;6358;50.760;0.282;2022-08-03T00:52:48;4.38;;;2.00;;
12585;SDS011;6358;50.760;0.282;2022-08-03T00:55:15;2.90;;;1.65;;
12585;SDS011;6358;50.760;0.282;2022-08-03T00:57:41;2.97;;;1.80;;
12585;SDS011;6358;50.760;0.282;2022-08-03T01:00:08;5.15;;;1.90;;
12585;SDS011;6358;50.760;0.282;2022-08-03T01:02:35;3.92;;;1.88;;
12585;SDS011;6358;50.760;0.282;2022-08-03T01:05:01;3.80;;;1.88;;
12585;SDS011;6358;50.760;0.282;2022-08-03T01:07:41;3.30;;;1.75;;
12585;SDS011;6358;50.760;0.282;2022-08-03T01:10:23;4.18;;;1.90;;
12585;SDS011;6358;50.760;0.282;2022-08-03T01:12:56;3.83;;;1.67;;
12585;SDS011;6358;50.760;0.282;2022-08-03T01:15:28;2.92;;;1.73;;
12585;SDS011;6358;50.760;0.282;2022-08-03T01:20:50;3.40;;;1.73;;
12585;SDS011;6358;50.760;0.282;2022-08-03T01:30:45;3.08;;;1.65;;
12585;SDS011;6358;50.760;0.282;2022-08-03T01:33:14;3.33;;;2.00;;
12585;SDS011;6358;50.760;0.282;2022-08-03T01:35:42;4.85;;;1.52;;
12585;SDS011;6358;50.760;0.282;2022-08-03T01:38:13;3.92;;;1.73;;
12585;SDS011;6358;50.760;0.282;2022-08-03T01:40:40;3.20;;;1.50;;
12585;SDS011;6358;50.760;0.282;2022-08-03T01:43:08;3.67;;;1.50;;
12585;SDS011;6358;50.760;0.282;2022-08-03T01:45:35;3.22;;;1.92;;
12585;SDS011;6358;50.760;0.282;2022-08-03T01:48:02;3.35;;;1.48;;
12585;SDS011;6358;50.760;0.282;2022-08-03T01:50:29;3.80;;;1.50;;
12585;SDS011;6358;50.760;0.282;2022-08-03T01:52:55;2.47;;;1.42;;
12585;SDS011;6358;50.760;0.282;2022-08-03T01:55:22;4.45;;;1.80;;
12585;SDS011;6358;50.760;0.282;2022-08-03T01:57:51;4.88;;;1.80;;
12585;SDS011;6358;50.760;0.282;2022-08-03T02:00:18;5.32;;;1.80;;
12585;SDS011;6358;50.760;0.282;2022-08-03T02:02:45;3.00;;;1.70;;
12585;SDS011;6358;50.760;0.282;2022-08-03T02:05:12;3.17;;;1.75;;
12585;SDS011;6358;50.760;0.282;2022-08-03T02:07:40;5.38;;;1.92;;
12585;SDS011;6358;50.760;0.282;2022-08-03T02:10:06;4.57;;;2.00;;
12585;SDS011;6358;50.760;0.282;2022-08-03T02:12:34;4.53;;;1.90;;
12585;SDS011;6358;50.760;0.282;2022-08-03T02:15:02;5.30;;;1.88;;
12585;SDS011;6358;50.760;0.282;2022-08-03T02:17:28;4.75;;;1.88;;
12585;SDS011;6358;50.760;0.282;2022-08-03T02:19:55;5.18;;;1.80;;
12585;SDS011;6358;50.760;0.282;2022-08-03T02:22:22;3.45;;;1.60;;
12585;SDS011;6358;50.760;0.282;2022-08-03T02:24:49;5.47;;;1.70;;
12585;SDS011;6358;50.760;0.282;2022-08-03T02:27:17;5.25;;;1.95;;
12585;SDS011;6358;50.760;0.282;2022-08-03T02:29:45;7.90;;;1.95;;
12585;SDS011;6358;50.760;0.282;2022-08-03T02:32:16;4.85;;;2.08;;
12585;SDS011;6358;50.760;0.282;2022-08-03T02:34:46;5.43;;;1.70;;
12585;SDS011;6358;50.760;0.282;2022-08-03T02:37:13;4.70;;;1.83;;
12585;SDS011;6358;50.760;0.282;2022-08-03T02:39:41;5.35;;;1.90;;
12585;SDS011;6358;50.760;0.282;2022-08-03T02:42:09;5.30;;;1.55;;
12585;SDS011;6358;50.760;0.282;2022-08-03T02:44:36;6.82;;;2.00;;
12585;SDS011;6358;50.760;0.282;2022-08-03T02:47:04;4.80;;;1.63;;
12585;SDS011;6358;50.760;0.282;2022-08-03T02:49:32;3.47;;;1.70;;
12585;SDS011;6358;50.760;0.282;2022-08-03T02:51:59;3.60;;;1.55;;
12585;SDS011;6358;50.760;0.282;2022-08-03T02:54:26;3.20;;;1.60;;
12585;SDS011;6358;50.760;0.282;2022-08-03T02:56:53;3.08;;;1.75;;
12585;SDS011;6358;50.760;0.282;2022-08-03T02:59:20;3.00;;;1.60;;
12585;SDS011;6358;50.760;0.282;2022-08-03T03:01:46;3.50;;;1.65;;
12585;SDS011;6358;50.760;0.282;2022-08-03T03:04:13;3.97;;;1.80;;
12585;SDS011;6358;50.760;0.282;2022-08-03T03:06:40;2.88;;;1.58;;
12585;SDS011;6358;50.760;0.282;2022-08-03T03:09:06;4.78;;;1.40;;
12585;SDS011;6358;50.760;0.282;2022-08-03T03:11:33;2.90;;;1.40;;
12585;SDS011;6358;50.760;0.282;2022-08-03T03:14:00;3.13;;;1.60;;
12585;SDS011;6358;50.760;0.282;2022-08-03T03:16:27;3.72;;;1.50;;
12585;SDS011;6358;50.760;0.282;2022-08-03T03:18:54;3.45;;;1.30;;
12585;SDS011;6358;50.760;0.282;2022-08-03T03:21:21;4.63;;;1.63;;
12585;SDS011;6358;50.760;0.282;2022-08-03T03:23:48;4.65;;;1.73;;
12585;SDS011;6358;50.760;0.282;2022-08-03T03:26:14;5.55;;;1.73;;
12585;SDS011;6358;50.760;0.282;2022-08-03T03:28:41;3.40;;;1.55;;
12585;SDS011;6358;50.760;0.282;2022-08-03T03:31:07;2.92;;;1.50;;
12585;SDS011;6358;50.760;0.282;2022-08-03T03:33:34;3.70;;;1.50;;
12585;SDS011;6358;50.760;0.282;2022-08-03T03:36:01;4.93;;;1.50;;
12585;SDS011;6358;50.760;0.282;2022-08-03T03:38:27;3.08;;;1.55;;
12585;SDS011;6358;50.760;0.282;2022-08-03T03:40:53;3.08;;;1.42;;
12585;SDS011;6358;50.760;0.282;2022-08-03T03:43:20;2.50;;;1.55;;
12585;SDS011;6358;50.760;0.282;2022-08-03T03:45:47;3.55;;;1.52;;
12585;SDS011;6358;50.760;0.282;2022-08-03T03:48:15;3.58;;;1.60;;
12585;SDS011;6358;50.760;0.282;2022-08-03T03:50:42;3.03;;;1.60;;
12585;SDS011;6358;50.760;0.282;2022-08-03T03:53:09;4.82;;;1.80;;
12585;SDS011;6358;50.760;0.282;2022-08-03T03:55:36;2.83;;;1.30;;
12585;SDS011;6358;50.760;0.282;2022-08-03T03:58:02;7.47;;;1.90;;
12585;SDS011;6358;50.760;0.282;2022-08-03T04:00:28;2.58;;;1.70;;
12585;SDS011;6358;50.760;0.282;2022-08-03T04:02:55;4.22;;;1.63;;
12585;SDS011;6358;50.760;0.282;2022-08-03T04:05:21;5.63;;;1.80;;
12585;SDS011;6358;50.760;0.282;2022-08-03T04:08:08;5.00;;;1.88;;
12585;SDS011;6358;50.760;0.282;2022-08-03T04:11:05;3.17;;;1.63;;
12585;SDS011;6358;50.760;0.282;2022-08-03T04:13:42;4.90;;;1.98;;
12585;SDS011;6358;50.760;0.282;2022-08-03T04:16:09;5.47;;;1.63;;
12585;SDS011;6358;50.760;0.282;2022-08-03T04:18:37;5.35;;;1.85;;
12585;SDS011;6358;50.760;0.282;2022-08-03T04:21:07;2.92;;;1.48;;
12585;SDS011;6358;50.760;0.282;2022-08-03T04:23:34;6.38;;;1.83;;
12585;SDS011;6358;50.760;0.282;2022-08-03T04:26:02;5.90;;;1.80;;
12585;SDS011;6358;50.760;0.282;2022-08-03T04:28:30;4.95;;;1.75;;
12585;SDS011;6358;50.760;0.282;2022-08-03T04:31:00;5.82;;;1.60;;
12585;SDS011;6358;50.760;0.282;2022-08-03T04:33:28;5.22;;;1.75;;
12585;SDS011;6358;50.760;0.282;2022-08-03T04:35:57;2.92;;;1.73;;
12585;SDS011;6358;50.760;0.282;2022-08-03T04:38:23;5.53;;;1.60;;
12585;SDS011;6358;50.760;0.282;2022-08-03T04:40:51;3.17;;;1.60;;
12585;SDS011;6358;50.760;0.282;2022-08-03T04:43:17;4.00;;;1.60;;
12585;SDS011;6358;50.760;0.282;2022-08-03T04:45:45;5.47;;;1.70;;
12585;SDS011;6358;50.760;0.282;2022-08-03T04:48:12;3.60;;;1.55;;
12585;SDS011;6358;50.760;0.282;2022-08-03T04:50:39;5.30;;;1.63;;
12585;SDS011;6358;50.760;0.282;2022-08-03T04:53:06;3.47;;;1.75;;
12585;SDS011;6358;50.760;0.282;2022-08-03T04:55:33;4.57;;;1.48;;
12585;SDS011;6358;50.760;0.282;2022-08-03T04:58:00;5.72;;;1.98;;
12585;SDS011;6358;50.760;0.282;2022-08-03T05:00:26;3.92;;;1.80;;
12585;SDS011;6358;50.760;0.282;2022-08-03T05:02:53;5.35;;;1.85;;
12585;SDS011;6358;50.760;0.282;2022-08-03T05:05:19;3.83;;;1.80;;
12585;SDS011;6358;50.760;0.282;2022-08-03T05:07:46;4.07;;;1.77;;
12585;SDS011;6358;50.760;0.282;2022-08-03T05:10:12;4.20;;;1.83;;
12585;SDS011;6358;50.760;0.282;2022-08-03T05:12:39;5.50;;;1.70;;
12585;SDS011;6358;50.760;0.282;2022-08-03T05:15:05;5.47;;;2.03;;
12585;SDS011;6358;50.760;0.282;2022-08-03T05:17:32;3.85;;;1.63;;
12585;SDS011;6358;50.760;0.282;2022-08-03T05:19:58;3.28;;;1.52;;
12585;SDS011;6358;50.760;0.282;2022-08-03T05:22:25;3.83;;;1.67;;
12585;SDS011;6358;50.760;0.282;2022-08-03T05:24:51;4.35;;;2.15;;
12585;SDS011;6358;50.760;0.282;2022-08-03T05:27:17;7.28;;;2.10;;
12585;SDS011;6358;50.760;0.282;2022-08-03T05:29:52;3.45;;;1.77;;
12585;SDS011;6358;50.760;0.282;2022-08-03T05:32:18;4.15;;;2.00;;
12585;SDS011;6358;50.760;0.282;2022-08-03T05:34:44;5.85;;;1.90;;
12585;SDS011;6358;50.760;0.282;2022-08-03T05:37:10;8.20;;;2.45;;
12585;SDS011;6358;50.760;0.282;2022-08-03T05:42:19;3.78;;;1.70;;
12585;SDS011;6358;50.760;0.282;2022-08-03T05:44:45;5.50;;;2.03;;
12585;SDS011;6358;50.760;0.282;2022-08-03T05:47:11;4.70;;;1.60;;
12585;SDS011;6358;50.760;0.282;2022-08-03T05:49:37;4.00;;;1.60;;
12585;SDS011;6358;50.760;0.282;2022-08-03T05:52:03;6.60;;;2.00;;
12585;SDS011;6358;50.760;0.282;2022-08-03T05:54:29;3.15;;;1.67;;
12585;SDS011;6358;50.760;0.282;2022-08-03T05:56:55;3.90;;;1.70;;
12585;SDS011;6358;50.760;0.282;2022-08-03T05:59:24;4.13;;;1.65;;
12585;SDS011;6358;50.760;0.282;2022-08-03T06:01:50;4.53;;;1.73;;
12585;SDS011;6358;50.760;0.282;2022-08-03T06:04:16;4.68;;;2.10;;
12585;SDS011;6358;50.760;0.282;2022-08-03T06:06:42;7.40;;;2.17;;
12585;SDS011;6358;50.760;0.282;2022-08-03T06:09:08;4.30;;;1.80;;
12585;SDS011;6358;50.760;0.282;2022-08-03T06:11:35;5.70;;;2.13;;
12585;SDS011;6358;50.760;0.282;2022-08-03T06:14:01;5.75;;;2.20;;
12585;SDS011;6358;50.760;0.282;2022-08-03T06:16:27;4.78;;;1.98;;
12585;SDS011;6358;50.760;0.282;2022-08-03T06:18:54;4.95;;;1.92;;
12585;SDS011;6358;50.760;0.282;2022-08-03T06:21:20;4.53;;;2.10;;
12585;SDS011;6358;50.760;0.282;2022-08-03T06:23:46;5.53;;;2.10;;
12585;SDS011;6358;50.760;0.282;2022-08-03T06:26:12;7.13;;;2.33;;
12585;SDS011;6358;50.760;0.282;2022-08-03T06:28:38;7.25;;;2.03;;
12585;SDS011;6358;50.760;0.282;2022-08-03T06:31:04;4.90;;;2.10;;
12585;SDS011;6358;50.760;0.282;2022-08-03T06:33:31;4.65;;;2.00;;
12585;SDS011;6358;50.760;0.282;2022-08-03T06:35:57;5.07;;;1.90;;
12585;SDS011;6358;50.760;0.282;2022-08-03T06:38:23;4.88;;;2.00;;
12585;SDS011;6358;50.760;0.282;2022-08-03T06:40:49;4.90;;;1.95;;
12585;SDS011;6358;50.760;0.282;2022-08-03T06:43:15;5.05;;;1.83;;
12585;SDS011;6358;50.760;0.282;2022-08-03T06:45:41;3.50;;;1.63;;
12585;SDS011;6358;50.760;0.282;2022-08-03T06:48:08;3.55;;;1.70;;
12585;SDS011;6358;50.760;0.282;2022-08-03T06:50:36;6.30;;;2.45;;
12585;SDS011;6358;50.760;0.282;2022-08-03T06:53:02;3.35;;;1.70;;
12585;SDS011;6358;50.760;0.282;2022-08-03T06:55:29;4.05;;;1.92;;
12585;SDS011;6358;50.760;0.282;2022-08-03T06:57:55;6.07;;;2.33;;
12585;SDS011;6358;50.760;0.282;2022-08-03T07:00:21;4.32;;;2.10;;
12585;SDS011;6358;50.760;0.282;2022-08-03T07:02:47;3.05;;;1.77;;
12585;SDS011;6358;50.760;0.282;2022-08-03T07:05:13;5.65;;;2.30;;
12585;SDS011;6358;50.760;0.282;2022-08-03T07:07:40;5.43;;;2.50;;
12585;SDS011;6358;50.760;0.282;2022-08-03T07:10:06;5.93;;;2.25;;
12585;SDS011;6358;50.760;0.282;2022-08-03T07:12:32;6.03;;;2.47;;
12585;SDS011;6358;50.760;0.282;2022-08-03T07:14:59;7.38;;;2.58;;
12585;SDS011;6358;50.760;0.282;2022-08-03T07:17:26;6.18;;;2.25;;
12585;SDS011;6358;50.760;0.282;2022-08-03T07:19:52;5.03;;;2.00;;
12585;SDS011;6358;50.760;0.282;2022-08-03T07:22:18;4.30;;;1.85;;
12585;SDS011;6358;50.760;0.282;2022-08-03T07:24:44;4.60;;;2.30;;
12585;SDS011;6358;50.760;0.282;2022-08-03T07:27:11;6.28;;;2.40;;
12585;SDS011;6358;50.760;0.282;2022-08-03T07:29:37;7.80;;;2.20;;
12585;SDS011;6358;50.760;0.282;2022-08-03T07:32:04;7.95;;;2.60;;
12585;SDS011;6358;50.760;0.282;2022-08-03T07:34:30;5.38;;;2.15;;
12585;SDS011;6358;50.760;0.282;2022-08-03T07:36:56;4.15;;;2.17;;
12585;SDS011;6358;50.760;0.282;2022-08-03T07:39:22;6.53;;;2.35;;
12585;SDS011;6358;50.760;0.282;2022-08-03T07:41:48;4.63;;;2.22;;
12585;SDS011;6358;50.760;0.282;2022-08-03T07:44:18;5.80;;;2.17;;
12585;SDS011;6358;50.760;0.282;2022-08-03T07:46:44;6.38;;;2.25;;
12585;SDS011;6358;50.760;0.282;2022-08-03T07:49:11;4.63;;;2.00;;
12585;SDS011;6358;50.760;0.282;2022-08-03T07:51:37;5.78;;;2.42;;
12585;SDS011;6358;50.760;0.282;2022-08-03T07:54:04;7.35;;;2.72;;
12585;SDS011;6358;50.760;0.282;2022-08-03T07:56:30;6.15;;;2.30;;
12585;SDS011;6358;50.760;0.282;2022-08-03T07:58:56;5.82;;;2.00;;
12585;SDS011;6358;50.760;0.282;2022-08-03T08:01:23;9.13;;;2.38;;
12585;SDS011;6358;50.760;0.282;2022-08-03T08:03:50;5.72;;;2.35;;
12585;SDS011;6358;50.760;0.282;2022-08-03T08:06:16;7.40;;;2.28;;
12585;SDS011;6358;50.760;0.282;2022-08-03T08:08:42;4.72;;;2.35;;
12585;SDS011;6358;50.760;0.282;2022-08-03T08:11:09;3.38;;;1.90;;
12585;SDS011;6358;50.760;0.282;2022-08-03T08:13:35;6.10;;;2.00;;
12585;SDS011;6358;50.760;0.282;2022-08-03T08:16:04;4.88;;;2.00;;
12585;SDS011;6358;50.760;0.282;2022-08-03T08:18:30;5.35;;;2.10;;
12585;SDS011;6358;50.760;0.282;2022-08-03T08:20:56;5.85;;;2.15;;
12585;SDS011;6358;50.760;0.282;2022-08-03T08:23:23;4.47;;;2.33;;
12585;SDS011;6358;50.760;0.282;2022-08-03T08:25:49;4.72;;;1.88;;
12585;SDS011;6358;50.760;0.282;2022-08-03T08:28:16;4.75;;;2.30;;
12585;SDS011;6358;50.760;0.282;2022-08-03T08:30:42;5.22;;;1.90;;
12585;SDS011;6358;50.760;0.282;2022-08-03T08:33:09;3.53;;;1.70;;
12585;SDS011;6358;50.760;0.282;2022-08-03T08:35:35;5.53;;;2.00;;
12585;SDS011;6358;50.760;0.282;2022-08-03T08:38:01;4.95;;;2.03;;
12585;SDS011;6358;50.760;0.282;2022-08-03T08:40:27;5.82;;;2.10;;
12585;SDS011;6358;50.760;0.282;2022-08-03T08:42:53;4.07;;;1.90;;
12585;SDS011;6358;50.760;0.282;2022-08-03T08:45:19;4.35;;;2.03;;
12585;SDS011;6358;50.760;0.282;2022-08-03T08:47:46;3.83;;;1.90;;
12585;SDS011;6358;50.760;0.282;2022-08-03T08:50:16;5.22;;;2.00;;
12585;SDS011;6358;50.760;0.282;2022-08-03T08:52:42;4.30;;;1.90;;
12585;SDS011;6358;50.760;0.282;2022-08-03T08:55:12;6.57;;;2.15;;
12585;SDS011;6358;50.760;0.282;2022-08-03T08:57:46;5.07;;;1.80;;
12585;SDS011;6358;50.760;0.282;2022-08-03T09:00:13;7.43;;;2.40;;
12585;SDS011;6358;50.760;0.282;2022-08-03T09:02:40;5.10;;;1.98;;
12585;SDS011;6358;50.760;0.282;2022-08-03T09:05:10;5.25;;;2.05;;
12585;SDS011;6358;50.760;0.282;2022-08-03T09:07:37;3.50;;;2.00;;
12585;SDS011;6358;50.760;0.282;2022-08-03T09:10:04;5.07;;;1.90;;
12585;SDS011;6358;50.760;0.282;2022-08-03T09:12:35;3.35;;;2.00;;
12585;SDS011;6358;50.760;0.282;2022-08-03T09:17:47;3.83;;;1.98;;
12585;SDS011;6358;50.760;0.282;2022-08-03T09:20:14;3.92;;;1.83;;
12585;SDS011;6358;50.760;0.282;2022-08-03T09:23:13;5.43;;;2.05;;
12585;SDS011;6358;50.760;0.282;2022-08-03T09:25:37;4.45;;;2.03;;
12585;SDS011;6358;50.760;0.282;2022-08-03T09:30:30;7.65;;;2.10;;
12585;SDS011;6358;50.760;0.282;2022-08-03T09:33:03;6.20;;;2.10;;
12585;SDS011;6358;50.760;0.282;2022-08-03T09:35:29;5.07;;;2.10;;
12585;SDS011;6358;50.760;0.282;2022-08-03T09:40:54;3.45;;;1.70;;
12585;SDS011;6358;50.760;0.282;2022-08-03T09:43:21;4.60;;;2.00;;
12585;SDS011;6358;50.760;0.282;2022-08-03T09:45:49;3.03;;;1.73;;
12585;SDS011;6358;50.760;0.282;2022-08-03T09:50:52;5.50;;;1.80;;
12585;SDS011;6358;50.760;0.282;2022-08-03T09:53:19;5.07;;;1.80;;
12585;SDS011;6358;50.760;0.282;2022-08-03T09:58:19;5.95;;;1.90;;
12585;SDS011;6358;50.760;0.282;2022-08-03T10:00:52;2.92;;;1.75;;
12585;SDS011;6358;50.760;0.282;2022-08-03T10:03:19;4.28;;;2.03;;
12585;SDS011;6358;50.760;0.282;2022-08-03T10:05:45;6.03;;;2.22;;
12585;SDS011;6358;50.760;0.282;2022-08-03T10:08:15;5.40;;;2.03;;
12585;SDS011;6358;50.760;0.282;2022-08-03T10:10:42;4.70;;;2.00;;
12585;SDS011;6358;50.760;0.282;2022-08-03T10:13:17;7.53;;;2.20;;
12585;SDS011;6358;50.760;0.282;2022-08-03T10:15:44;5.35;;;2.33;;
12585;SDS011;6358;50.760;0.282;2022-08-03T10:18:11;8.18;;;2.15;;
12585;SDS011;6358;50.760;0.282;2022-08-03T10:20:42;4.28;;;1.95;;
12585;SDS011;6358;50.760;0.282;2022-08-03T10:23:08;5.85;;;2.00;;
12585;SDS011;6358;50.760;0.282;2022-08-03T10:25:36;4.75;;;2.13;;
12585;SDS011;6358;50.760;0.282;2022-08-03T10:28:03;3.90;;;2.00;;
12585;SDS011;6358;50.760;0.282;2022-08-03T10:30:30;7.25;;;2.10;;
12585;SDS011;6358;50.760;0.282;2022-08-03T10:33:12;4.68;;;2.05;;
12585;SDS011;6358;50.760;0.282;2022-08-03T10:35:39;5.55;;;2.00;;
12585;SDS011;6358;50.760;0.282;2022-08-03T10:38:11;4.63;;;2.10;;
12585;SDS011;6358;50.760;0.282;2022-08-03T10:40:37;5.82;;;2.10;;
12585;SDS011;6358;50.760;0.282;2022-08-03T10:43:26;3.75;;;1.90;;
12585;SDS011;6358;50.760;0.282;2022-08-03T10:45:51;4.22;;;2.05;;
12585;SDS011;6358;50.760;0.282;2022-08-03T10:48:17;5.57;;;2.15;;
12585;SDS011;6358;50.760;0.282;2022-08-03T10:50:44;4.38;;;2.10;;
12585;SDS011;6358;50.760;0.282;2022-08-03T10:53:10;3.15;;;1.70;;
12585;SDS011;6358;50.760;0.282;2022-08-03T10:55:43;4.05;;;1.90;;
12585;SDS011;6358;50.760;0.282;2022-08-03T11:01:04;4.13;;;1.77;;
12585;SDS011;6358;50.760;0.282;2022-08-03T11:03:30;4.22;;;1.58;;
12585;SDS011;6358;50.760;0.282;2022-08-03T11:06:16;5.38;;;1.90;;
12585;SDS011;6358;50.760;0.282;2022-08-03T11:08:45;4.28;;;1.75;;
12585;SDS011;6358;50.760;0.282;2022-08-03T11:16:22;4.50;;;1.95;;
12585;SDS011;6358;50.760;0.282;2022-08-03T11:18:58;4.57;;;1.92;;
12585;SDS011;6358;50.760;0.282;2022-08-03T11:24:09;3.80;;;1.80;;
12585;SDS011;6358;50.760;0.282;2022-08-03T11:26:35;4.53;;;1.90;;
12585;SDS011;6358;50.760;0.282;2022-08-03T11:31:46;4.57;;;1.80;;
12585;SDS011;6358;50.760;0.282;2022-08-03T11:34:14;3.03;;;1.90;;
12585;SDS011;6358;50.760;0.282;2022-08-03T11:39:38;3.10;;;1.80;;
12585;SDS011;6358;50.760;0.282;2022-08-03T11:44:49;4.00;;;1.92;;
12585;SDS011;6358;50.760;0.282;2022-08-03T11:47:15;3.97;;;2.08;;
12585;SDS011;6358;50.760;0.282;2022-08-03T11:49:43;4.38;;;2.00;;
12585;SDS011;6358;50.760;0.282;2022-08-03T11:52:11;4.80;;;2.40;;
12585;SDS011;6358;50.760;0.282;2022-08-03T11:54:37;3.88;;;1.70;;
12585;SDS011;6358;50.760;0.282;2022-08-03T11:57:03;3.53;;;1.80;;
12585;SDS011;6358;50.760;0.282;2022-08-03T11:59:33;4.53;;;1.48;;
12585;SDS011;6358;50.760;0.282;2022-08-03T12:02:11;4.43;;;1.85;;
12585;SDS011;6358;50.760;0.282;2022-08-03T12:07:16;3.95;;;1.90;;
12585;SDS011;6358;50.760;0.282;2022-08-03T12:09:42;4.15;;;1.63;;
12585;SDS011;6358;50.760;0.282;2022-08-03T12:12:08;4.22;;;1.95;;
12585;SDS011;6358;50.760;0.282;2022-08-03T12:14:35;2.50;;;1.90;;
12585;SDS011;6358;50.760;0.282;2022-08-03T12:17:01;4.90;;;1.92;;
12585;SDS011;6358;50.760;0.282;2022-08-03T12:19:39;3.25;;;1.75;;
12585;SDS011;6358;50.760;0.282;2022-08-03T12:22:06;3.78;;;1.63;;
12585;SDS011;6358;50.760;0.282;2022-08-03T12:24:39;6.40;;;1.90;;
12585;SDS011;6358;50.760;0.282;2022-08-03T12:27:05;5.70;;;2.03;;
12585;SDS011;6358;50.760;0.282;2022-08-03T12:29:31;4.50;;;1.90;;
12585;SDS011;6358;50.760;0.282;2022-08-03T12:31:58;2.70;;;1.92;;
12585;SDS011;6358;50.760;0.282;2022-08-03T12:34:32;2.47;;;1.70;;
12585;SDS011;6358;50.760;0.282;2022-08-03T12:37:09;3.78;;;1.73;;
12585;SDS011;6358;50.760;0.282;2022-08-03T12:39:35;2.95;;;1.77;;
12585;SDS011;6358;50.760;0.282;2022-08-03T12:42:02;4.28;;;1.92;;
12585;SDS011;6358;50.760;0.282;2022-08-03T12:44:30;3.72;;;1.88;;
12585;SDS011;6358;50.760;0.282;2022-08-03T12:46:57;3.65;;;1.95;;
12585;SDS011;6358;50.760;0.282;2022-08-03T12:49:24;4.18;;;1.80;;
12585;SDS011;6358;50.760;0.282;2022-08-03T12:54:20;2.92;;;1.73;;
12585;SDS011;6358;50.760;0.282;2022-08-03T12:59:29;3.85;;;1.90;;
12585;SDS011;6358;50.760;0.282;2022-08-03T13:01:56;2.55;;;1.60;;
12585;SDS011;6358;50.760;0.282;2022-08-03T13:07:12;2.35;;;1.60;;
12585;SDS011;6358;50.760;0.282;2022-08-03T13:09:42;3.83;;;2.08;;
12585;SDS011;6358;50.760;0.282;2022-08-03T13:14:35;5.07;;;1.92;;
12585;SDS011;6358;50.760;0.282;2022-08-03T13:17:02;4.65;;;1.60;;
12585;SDS011;6358;50.760;0.282;2022-08-03T13:19:28;5.03;;;1.98;;
12585;SDS011;6358;50.760;0.282;2022-08-03T13:21:54;3.17;;;1.50;;
12585;SDS011;6358;50.760;0.282;2022-08-03T13:24:20;2.80;;;1.70;;
12585;SDS011;6358;50.760;0.282;2022-08-03T13:26:46;3.03;;;1.50;;
12585;SDS011;6358;50.760;0.282;2022-08-03T13:29:12;3.17;;;1.60;;
12585;SDS011;6358;50.760;0.282;2022-08-03T13:31:38;2.33;;;1.50;;
12585;SDS011;6358;50.760;0.282;2022-08-03T13:34:04;3.70;;;1.55;;
12585;SDS011;6358;50.760;0.282;2022-08-03T13:36:31;3.90;;;1.75;;
12585;SDS011;6358;50.760;0.282;2022-08-03T13:38:57;3.60;;;1.90;;
12585;SDS011;6358;50.760;0.282;2022-08-03T13:41:23;2.55;;;1.50;;
12585;SDS011;6358;50.760;0.282;2022-08-03T13:43:49;2.90;;;1.50;;
12585;SDS011;6358;50.760;0.282;2022-08-03T13:46:15;2.63;;;1.50;;
12585;SDS011;6358;50.760;0.282;2022-08-03T13:48:41;3.72;;;1.50;;
12585;SDS011;6358;50.760;0.282;2022-08-03T13:51:07;3.05;;;1.67;;
12585;SDS011;6358;50.760;0.282;2022-08-03T13:53:34;3.05;;;1.60;;
12585;SDS011;6358;50.760;0.282;2022-08-03T13:56:00;4.05;;;1.70;;
12585;SDS011;6358;50.760;0.282;2022-08-03T13:58:26;4.35;;;1.90;;
12585;SDS011;6358;50.760;0.282;2022-08-03T14:00:52;2.92;;;1.60;;
12585;SDS011;6358;50.760;0.282;2022-08-03T14:03:18;2.95;;;1.55;;
12585;SDS011;6358;50.760;0.282;2022-08-03T14:05:45;7.22;;;2.10;;
12585;SDS011;6358;50.760;0.282;2022-08-03T14:08:12;3.92;;;1.80;;
12585;SDS011;6358;50.760;0.282;2022-08-03T14:10:39;2.53;;;1.60;;
12585;SDS011;6358;50.760;0.282;2022-08-03T14:13:06;3.95;;;1.67;;
12585;SDS011;6358;50.760;0.282;2022-08-03T14:15:33;3.22;;;1.48;;
12585;SDS011;6358;50.760;0.282;2022-08-03T14:17:59;3.97;;;1.63;;
12585;SDS011;6358;50.760;0.282;2022-08-03T14:20:25;3.03;;;1.70;;
12585;SDS011;6358;50.760;0.282;2022-08-03T14:22:52;1.95;;;1.58;;
12585;SDS011;6358;50.760;0.282;2022-08-03T14:25:19;2.92;;;1.50;;
12585;SDS011;6358;50.760;0.282;2022-08-03T14:27:45;3.13;;;1.58;;
12585;SDS011;6358;50.760;0.282;2022-08-03T14:30:11;2.60;;;1.40;;
12585;SDS011;6358;50.760;0.282;2022-08-03T14:32:37;2.35;;;1.45;;
12585;SDS011;6358;50.760;0.282;2022-08-03T14:35:03;3.80;;;1.52;;
12585;SDS011;6358;50.760;0.282;2022-08-03T14:37:30;2.90;;;1.60;;
12585;SDS011;6358;50.760;0.282;2022-08-03T14:39:57;3.28;;;1.48;;
12585;SDS011;6358;50.760;0.282;2022-08-03T14:42:23;3.45;;;1.60;;
12585;SDS011;6358;50.760;0.282;2022-08-03T14:44:49;3.65;;;1.58;;
12585;SDS011;6358;50.760;0.282;2022-08-03T14:47:15;5.10;;;1.63;;
12585;SDS011;6358;50.760;0.282;2022-08-03T14:49:42;1.85;;;1.38;;
12585;SDS011;6358;50.760;0.282;2022-08-03T14:52:08;2.50;;;1.30;;
12585;SDS011;6358;50.760;0.282;2022-08-03T14:54:34;3.05;;;1.60;;
12585;SDS011;6358;50.760;0.282;2022-08-03T14:57:00;2.88;;;1.52;;
12585;SDS011;6358;50.760;0.282;2022-08-03T14:59:26;3.53;;;1.60;;
12585;SDS011;6358;50.760;0.282;2022-08-03T15:01:52;2.25;;;1.30;;
12585;SDS011;6358;50.760;0.282;2022-08-03T15:04:19;2.13;;;1.25;;
12585;SDS011;6358;50.760;0.282;2022-08-03T15:06:45;3.88;;;1.55;;
12585;SDS011;6358;50.760;0.282;2022-08-03T15:09:12;3.00;;;1.48;;
12585;SDS011;6358;50.760;0.282;2022-08-03T15:11:38;2.90;;;1.48;;
12585;SDS011;6358;50.760;0.282;2022-08-03T15:14:04;2.40;;;1.65;;
12585;SDS011;6358;50.760;0.282;2022-08-03T15:16:30;2.83;;;1.70;;
12585;SDS011;6358;50.760;0.282;2022-08-03T15:18:56;3.50;;;1.45;;
12585;SDS011;6358;50.760;0.282;2022-08-03T15:21:23;1.65;;;1.30;;
12585;SDS011;6358;50.760;0.282;2022-08-03T15:23:49;2.55;;;1.50;;
12585;SDS011;6358;50.760;0.282;2022-08-03T15:26:16;2.35;;;1.45;;
12585;SDS011;6358;50.760;0.282;2022-08-03T15:28:42;2.65;;;1.58;;
12585;SDS011;6358;50.760;0.282;2022-08-03T15:31:08;2.65;;;1.42;;
12585;SDS011;6358;50.760;0.282;2022-08-03T15:33:34;2.15;;;1.60;;
12585;SDS011;6358;50.760;0.282;2022-08-03T15:36:02;2.13;;;1.35;;
12585;SDS011;6358;50.760;0.282;2022-08-03T15:38:28;3.25;;;1.40;;
12585;SDS011;6358;50.760;0.282;2022-08-03T15:40:54;1.77;;;1.30;;
12585;SDS011;6358;50.760;0.282;2022-08-03T15:43:23;2.55;;;1.50;;
12585;SDS011;6358;50.760;0.282;2022-08-03T15:45:50;1.63;;;1.23;;
12585;SDS011;6358;50.760;0.282;2022-08-03T15:48:16;2.20;;;1.40;;
12585;SDS011;6358;50.760;0.282;2022-08-03T15:50:44;2.10;;;1.50;;
12585;SDS011;6358;50.760;0.282;2022-08-03T15:53:10;3.72;;;1.50;;
12585;SDS011;6358;50.760;0.282;2022-08-03T15:55:36;2.03;;;1.50;;
12585;SDS011;6358;50.760;0.282;2022-08-03T15:58:02;3.00;;;1.40;;
12585;SDS011;6358;50.760;0.282;2022-08-03T16:00:28;2.20;;;1.40;;